sensor_id;sensor_type;location;lat;lon;timestamp;temperature;humidity
30572;DHT22;17348;50.948;10.696;2024-01-06T00:00:14;4.70;99.90
30572;DHT22;17348;50.948;10.696;2024-01-06T00:03:18;4.70;99.90
30572;DHT22;17348;50.948;10.696;2024-01-06T00:06:20;4.70;99.90
30572;DHT22;17348;50.948;10.696;2024-01-06T00:09:23;4.70;99.90
30572;DHT22;17348;50.948;10.696;2024-01-06T00:12:26;4.70;99.90
30572;DHT22;17348;50.948;10.696;2024-01-06T00:15:31;4.60;99.90
30572;DHT22;17348;50.948;10.696;2024-01-06T00:18:35;4.60;99.90
30572;DHT22;17348;50.948;10.696;2024-01-06T00:21:37;4.50;99.90
30572;DHT22;17348;50.948;10.696;2024-01-06T00:24:39;4.40;99.90
30572;DHT22;17348;50.948;10.696;2024-01-06T00:27:42;4.40;99.90
30572;DHT22;17348;50.948;10.696;2024-01-06T00:30:44;4.30;99.90
30572;DHT22;17348;50.948;10.696;2024-01-06T00:33:48;4.30;99.90
30572;DHT22;17348;50.948;10.696;2024-01-06T00:36:50;4.30;99.90
30572;DHT22;17348;50.948;10.696;2024-01-06T00:39:52;4.20;99.90
30572;DHT22;17348;50.948;10.696;2024-01-06T00:42:55;4.10;99.90
30572;DHT22;17348;50.948;10.696;2024-01-06T00:45:57;4.00;99.90
30572;DHT22;17348;50.948;10.696;2024-01-06T00:49:04;4.00;99.90
30572;DHT22;17348;50.948;10.696;2024-01-06T00:52:06;3.90;99.90
30572;DHT22;17348;50.948;10.696;2024-01-06T00:55:08;3.90;99.90
30572;DHT22;17348;50.948;10.696;2024-01-06T00:58:11;3.90;99.90
30572;DHT22;17348;50.948;10.696;2024-01-06T01:01:16;3.90;99.90
30572;DHT22;17348;50.948;10.696;2024-01-06T01:04:20;3.90;99.90
30572;DHT22;17348;50.948;10.696;2024-01-06T01:07:23;3.90;99.90
30572;DHT22;17348;50.948;10.696;2024-01-06T01:10:25;3.90;99.90
30572;DHT22;17348;50.948;10.696;2024-01-06T01:13:28;4.00;99.90
30572;DHT22;17348;50.948;10.696;2024-01-06T01:16:30;4.10;99.90
30572;DHT22;17348;50.948;10.696;2024-01-06T01:19:34;4.10;99.90
30572;DHT22;17348;50.948;10.696;2024-01-06T01:22:36;4.20;99.90
30572;DHT22;17348;50.948;10.696;2024-01-06T01:25:39;4.30;99.90
30572;DHT22;17348;50.948;10.696;2024-01-06T01:28:41;4.30;99.90
30572;DHT22;17348;50.948;10.696;2024-01-06T01:31:43;4.40;99.90
30572;DHT22;17348;50.948;10.696;2024-01-06T01:34:50;4.60;99.90
30572;DHT22;17348;50.948;10.696;2024-01-06T01:37:52;4.50;99.90
30572;DHT22;17348;50.948;10.696;2024-01-06T01:40:54;4.70;99.90
30572;DHT22;17348;50.948;10.696;2024-01-06T01:43:57;4.70;99.90
30572;DHT22;17348;50.948;10.696;2024-01-06T01:47:00;4.80;99.90
30572;DHT22;17348;50.948;10.696;2024-01-06T01:50:04;4.90;99.90
30572;DHT22;17348;50.948;10.696;2024-01-06T01:53:07;4.90;99.90
30572;DHT22;17348;50.948;10.696;2024-01-06T01:56:09;5.00;99.90
30572;DHT22;17348;50.948;10.696;2024-01-06T01:59:14;5.00;99.90
30572;DHT22;17348;50.948;10.696;2024-01-06T02:02:20;5.00;99.90
30572;DHT22;17348;50.948;10.696;2024-01-06T02:05:24;5.10;99.90
30572;DHT22;17348;50.948;10.696;2024-01-06T02:08:26;5.10;99.90
30572;DHT22;17348;50.948;10.696;2024-01-06T02:11:28;5.20;99.90
30572;DHT22;17348;50.948;10.696;2024-01-06T02:14:31;5.20;99.90
30572;DHT22;17348;50.948;10.696;2024-01-06T02:17:34;5.20;99.90
30572;DHT22;17348;50.948;10.696;2024-01-06T02:20:37;5.30;99.90
30572;DHT22;17348;50.948;10.696;2024-01-06T02:23:42;5.30;99.90
30572;DHT22;17348;50.948;10.696;2024-01-06T02:26:44;5.30;99.90
30572;DHT22;17348;50.948;10.696;2024-01-06T02:29:47;5.30;99.90
30572;DHT22;17348;50.948;10.696;2024-01-06T02:32:49;5.30;99.90
30572;DHT22;17348;50.948;10.696;2024-01-06T02:35:51;5.30;99.90
30572;DHT22;17348;50.948;10.696;2024-01-06T02:38:55;5.40;99.90
30572;DHT22;17348;50.948;10.696;2024-01-06T02:41:57;5.40;99.90
30572;DHT22;17348;50.948;10.696;2024-01-06T02:45:00;5.40;99.90
30572;DHT22;17348;50.948;10.696;2024-01-06T02:48:02;5.40;99.90
30572;DHT22;17348;50.948;10.696;2024-01-06T02:51:05;5.40;99.90
30572;DHT22;17348;50.948;10.696;2024-01-06T02:54:08;5.50;99.90
30572;DHT22;17348;50.948;10.696;2024-01-06T02:57:11;5.40;99.90
30572;DHT22;17348;50.948;10.696;2024-01-06T03:00:15;5.50;99.90
30572;DHT22;17348;50.948;10.696;2024-01-06T03:03:17;5.50;99.90
30572;DHT22;17348;50.948;10.696;2024-01-06T03:06:20;5.50;99.90
30572;DHT22;17348;50.948;10.696;2024-01-06T03:09:23;5.60;99.90
30572;DHT22;17348;50.948;10.696;2024-01-06T03:12:25;5.50;99.90
30572;DHT22;17348;50.948;10.696;2024-01-06T03:15:28;5.60;99.90
30572;DHT22;17348;50.948;10.696;2024-01-06T03:18:30;5.60;99.90
30572;DHT22;17348;50.948;10.696;2024-01-06T03:21:33;5.60;99.90
30572;DHT22;17348;50.948;10.696;2024-01-06T03:24:36;5.60;99.90
30572;DHT22;17348;50.948;10.696;2024-01-06T03:27:39;5.60;99.90
30572;DHT22;17348;50.948;10.696;2024-01-06T03:30:41;5.60;99.90
30572;DHT22;17348;50.948;10.696;2024-01-06T03:33:44;5.60;99.90
30572;DHT22;17348;50.948;10.696;2024-01-06T03:36:46;5.60;99.90
30572;DHT22;17348;50.948;10.696;2024-01-06T03:39:50;5.60;99.90
30572;DHT22;17348;50.948;10.696;2024-01-06T03:42:52;5.60;99.90
30572;DHT22;17348;50.948;10.696;2024-01-06T03:45:54;5.60;99.90
30572;DHT22;17348;50.948;10.696;2024-01-06T03:48:58;5.60;99.90
30572;DHT22;17348;50.948;10.696;2024-01-06T03:52:01;5.60;99.90
30572;DHT22;17348;50.948;10.696;2024-01-06T03:55:06;5.60;99.90
30572;DHT22;17348;50.948;10.696;2024-01-06T03:58:08;5.60;99.90
30572;DHT22;17348;50.948;10.696;2024-01-06T04:01:10;5.70;99.90
30572;DHT22;17348;50.948;10.696;2024-01-06T04:04:13;5.70;99.90
30572;DHT22;17348;50.948;10.696;2024-01-06T04:07:15;5.70;99.90
30572;DHT22;17348;50.948;10.696;2024-01-06T04:10:19;5.70;99.90
30572;DHT22;17348;50.948;10.696;2024-01-06T04:13:22;5.70;99.90
30572;DHT22;17348;50.948;10.696;2024-01-06T04:16:26;5.80;99.90
30572;DHT22;17348;50.948;10.696;2024-01-06T04:19:28;5.80;99.90
30572;DHT22;17348;50.948;10.696;2024-01-06T04:22:30;5.80;99.90
30572;DHT22;17348;50.948;10.696;2024-01-06T04:25:34;5.90;99.90
30572;DHT22;17348;50.948;10.696;2024-01-06T04:28:36;5.90;99.90
30572;DHT22;17348;50.948;10.696;2024-01-06T04:31:40;5.90;99.90
30572;DHT22;17348;50.948;10.696;2024-01-06T04:34:42;5.90;99.90
30572;DHT22;17348;50.948;10.696;2024-01-06T04:37:44;5.90;99.90
30572;DHT22;17348;50.948;10.696;2024-01-06T04:40:48;6.00;99.90
30572;DHT22;17348;50.948;10.696;2024-01-06T04:43:50;6.00;99.90
30572;DHT22;17348;50.948;10.696;2024-01-06T04:46:53;6.00;99.90
30572;DHT22;17348;50.948;10.696;2024-01-06T04:49:55;6.00;99.90
30572;DHT22;17348;50.948;10.696;2024-01-06T04:52:57;5.90;99.90
30572;DHT22;17348;50.948;10.696;2024-01-06T04:56:01;6.00;99.90
30572;DHT22;17348;50.948;10.696;2024-01-06T04:59:03;5.90;99.90
30572;DHT22;17348;50.948;10.696;2024-01-06T05:02:06;5.90;99.90
30572;DHT22;17348;50.948;10.696;2024-01-06T05:05:08;5.80;99.90
30572;DHT22;17348;50.948;10.696;2024-01-06T05:08:11;5.70;99.90
30572;DHT22;17348;50.948;10.696;2024-01-06T05:11:14;5.60;99.90
30572;DHT22;17348;50.948;10.696;2024-01-06T05:14:17;5.60;99.90
30572;DHT22;17348;50.948;10.696;2024-01-06T05:17:19;5.50;99.90
30572;DHT22;17348;50.948;10.696;2024-01-06T05:20:21;5.50;99.90
30572;DHT22;17348;50.948;10.696;2024-01-06T05:23:23;5.40;99.90
30572;DHT22;17348;50.948;10.696;2024-01-06T05:26:27;5.40;99.90
30572;DHT22;17348;50.948;10.696;2024-01-06T05:29:29;5.30;99.90
30572;DHT22;17348;50.948;10.696;2024-01-06T05:32:32;5.30;99.90
30572;DHT22;17348;50.948;10.696;2024-01-06T05:35:34;5.30;99.90
30572;DHT22;17348;50.948;10.696;2024-01-06T05:38:39;5.30;99.90
30572;DHT22;17348;50.948;10.696;2024-01-06T05:41:43;5.30;99.90
30572;DHT22;17348;50.948;10.696;2024-01-06T05:44:47;5.30;99.90
30572;DHT22;17348;50.948;10.696;2024-01-06T05:47:51;5.20;99.90
30572;DHT22;17348;50.948;10.696;2024-01-06T05:50:54;5.10;99.90
30572;DHT22;17348;50.948;10.696;2024-01-06T05:53:56;5.00;99.90
30572;DHT22;17348;50.948;10.696;2024-01-06T05:57:00;5.00;99.90
30572;DHT22;17348;50.948;10.696;2024-01-06T06:00:06;5.00;99.90
30572;DHT22;17348;50.948;10.696;2024-01-06T06:03:09;4.90;99.90
30572;DHT22;17348;50.948;10.696;2024-01-06T06:06:12;4.80;99.90
30572;DHT22;17348;50.948;10.696;2024-01-06T06:09:14;4.70;99.90
30572;DHT22;17348;50.948;10.696;2024-01-06T06:12:18;4.60;99.90
30572;DHT22;17348;50.948;10.696;2024-01-06T06:15:20;4.40;99.90
30572;DHT22;17348;50.948;10.696;2024-01-06T06:18:22;4.40;99.90
30572;DHT22;17348;50.948;10.696;2024-01-06T06:21:25;4.30;99.90
30572;DHT22;17348;50.948;10.696;2024-01-06T06:24:27;4.20;99.90
30572;DHT22;17348;50.948;10.696;2024-01-06T06:27:31;4.10;99.90
30572;DHT22;17348;50.948;10.696;2024-01-06T06:30:33;4.00;99.90
30572;DHT22;17348;50.948;10.696;2024-01-06T06:33:36;3.90;99.90
30572;DHT22;17348;50.948;10.696;2024-01-06T06:36:38;3.90;99.90
30572;DHT22;17348;50.948;10.696;2024-01-06T06:39:40;3.80;99.90
30572;DHT22;17348;50.948;10.696;2024-01-06T06:42:46;3.80;99.90
30572;DHT22;17348;50.948;10.696;2024-01-06T06:45:48;3.70;99.90
30572;DHT22;17348;50.948;10.696;2024-01-06T06:48:51;3.60;99.90
30572;DHT22;17348;50.948;10.696;2024-01-06T06:51:53;3.60;99.90
30572;DHT22;17348;50.948;10.696;2024-01-06T06:54:57;3.60;99.90
30572;DHT22;17348;50.948;10.696;2024-01-06T06:58:01;3.60;99.90
30572;DHT22;17348;50.948;10.696;2024-01-06T07:01:03;3.50;99.90
30572;DHT22;17348;50.948;10.696;2024-01-06T07:04:06;3.60;99.90
30572;DHT22;17348;50.948;10.696;2024-01-06T07:07:09;3.50;99.90
30572;DHT22;17348;50.948;10.696;2024-01-06T07:10:11;3.40;99.90
30572;DHT22;17348;50.948;10.696;2024-01-06T07:13:15;3.40;99.90
30572;DHT22;17348;50.948;10.696;2024-01-06T07:16:17;3.40;99.90
30572;DHT22;17348;50.948;10.696;2024-01-06T07:19:19;3.50;99.90
30572;DHT22;17348;50.948;10.696;2024-01-06T07:22:27;3.50;99.90
30572;DHT22;17348;50.948;10.696;2024-01-06T07:25:29;3.50;99.90
30572;DHT22;17348;50.948;10.696;2024-01-06T07:28:33;3.40;99.90
30572;DHT22;17348;50.948;10.696;2024-01-06T07:31:36;3.40;99.90
30572;DHT22;17348;50.948;10.696;2024-01-06T07:34:38;3.40;99.90
30572;DHT22;17348;50.948;10.696;2024-01-06T07:37:40;3.40;99.90
30572;DHT22;17348;50.948;10.696;2024-01-06T07:40:43;3.40;99.90
30572;DHT22;17348;50.948;10.696;2024-01-06T07:43:46;3.40;99.90
30572;DHT22;17348;50.948;10.696;2024-01-06T07:46:49;3.50;99.90
30572;DHT22;17348;50.948;10.696;2024-01-06T07:49:51;3.50;99.90
30572;DHT22;17348;50.948;10.696;2024-01-06T07:52:54;3.50;99.90
30572;DHT22;17348;50.948;10.696;2024-01-06T07:55:56;3.60;99.90
30572;DHT22;17348;50.948;10.696;2024-01-06T07:59:00;3.60;99.90
30572;DHT22;17348;50.948;10.696;2024-01-06T08:02:03;3.70;99.90
30572;DHT22;17348;50.948;10.696;2024-01-06T08:05:05;3.80;99.90
30572;DHT22;17348;50.948;10.696;2024-01-06T08:08:08;3.90;99.90
30572;DHT22;17348;50.948;10.696;2024-01-06T08:11:11;4.10;99.90
30572;DHT22;17348;50.948;10.696;2024-01-06T08:14:14;4.10;99.90
30572;DHT22;17348;50.948;10.696;2024-01-06T08:17:18;4.20;99.90
30572;DHT22;17348;50.948;10.696;2024-01-06T08:20:20;4.20;99.90
30572;DHT22;17348;50.948;10.696;2024-01-06T08:23:22;4.30;99.90
30572;DHT22;17348;50.948;10.696;2024-01-06T08:26:25;4.40;99.90
30572;DHT22;17348;50.948;10.696;2024-01-06T08:29:29;4.50;99.90
30572;DHT22;17348;50.948;10.696;2024-01-06T08:32:31;4.50;99.90
30572;DHT22;17348;50.948;10.696;2024-01-06T08:35:33;4.60;99.90
30572;DHT22;17348;50.948;10.696;2024-01-06T08:38:41;4.70;99.90
30572;DHT22;17348;50.948;10.696;2024-01-06T08:41:43;4.80;99.90
30572;DHT22;17348;50.948;10.696;2024-01-06T08:44:47;4.90;99.90
30572;DHT22;17348;50.948;10.696;2024-01-06T08:47:49;5.00;99.90
30572;DHT22;17348;50.948;10.696;2024-01-06T08:50:52;5.10;99.90
30572;DHT22;17348;50.948;10.696;2024-01-06T08:53:54;5.10;99.90
30572;DHT22;17348;50.948;10.696;2024-01-06T08:56:56;5.20;99.90
30572;DHT22;17348;50.948;10.696;2024-01-06T09:00:00;5.30;99.90
30572;DHT22;17348;50.948;10.696;2024-01-06T09:03:03;5.30;99.90
30572;DHT22;17348;50.948;10.696;2024-01-06T09:06:05;5.40;99.90
30572;DHT22;17348;50.948;10.696;2024-01-06T09:09:08;5.50;99.90
30572;DHT22;17348;50.948;10.696;2024-01-06T09:12:10;5.50;99.90
30572;DHT22;17348;50.948;10.696;2024-01-06T09:15:14;5.50;99.90
30572;DHT22;17348;50.948;10.696;2024-01-06T09:18:17;5.60;99.90
30572;DHT22;17348;50.948;10.696;2024-01-06T09:21:19;5.60;99.90
30572;DHT22;17348;50.948;10.696;2024-01-06T09:24:21;5.60;99.90
30572;DHT22;17348;50.948;10.696;2024-01-06T09:27:24;5.80;99.90
30572;DHT22;17348;50.948;10.696;2024-01-06T09:30:27;5.90;99.90
30572;DHT22;17348;50.948;10.696;2024-01-06T09:33:30;6.00;99.90
30572;DHT22;17348;50.948;10.696;2024-01-06T09:36:34;6.10;99.90
30572;DHT22;17348;50.948;10.696;2024-01-06T09:39:37;6.30;99.90
30572;DHT22;17348;50.948;10.696;2024-01-06T09:42:40;6.30;99.90
30572;DHT22;17348;50.948;10.696;2024-01-06T09:45:48;6.30;99.90
30572;DHT22;17348;50.948;10.696;2024-01-06T09:48:56;6.40;99.90
30572;DHT22;17348;50.948;10.696;2024-01-06T09:51:59;6.50;99.90
30572;DHT22;17348;50.948;10.696;2024-01-06T09:55:02;6.60;99.90
30572;DHT22;17348;50.948;10.696;2024-01-06T09:58:10;6.60;99.90
30572;DHT22;17348;50.948;10.696;2024-01-06T10:01:14;6.70;99.90
30572;DHT22;17348;50.948;10.696;2024-01-06T10:04:17;6.80;99.90
30572;DHT22;17348;50.948;10.696;2024-01-06T10:07:20;6.90;99.90
30572;DHT22;17348;50.948;10.696;2024-01-06T10:10:22;7.00;99.90
30572;DHT22;17348;50.948;10.696;2024-01-06T10:13:25;7.10;99.90
30572;DHT22;17348;50.948;10.696;2024-01-06T10:16:31;7.20;99.90
30572;DHT22;17348;50.948;10.696;2024-01-06T10:19:35;7.30;99.90
30572;DHT22;17348;50.948;10.696;2024-01-06T10:22:41;7.30;99.90
30572;DHT22;17348;50.948;10.696;2024-01-06T10:25:44;7.30;99.90
30572;DHT22;17348;50.948;10.696;2024-01-06T10:28:48;7.30;99.90
30572;DHT22;17348;50.948;10.696;2024-01-06T10:31:52;7.40;99.90
30572;DHT22;17348;50.948;10.696;2024-01-06T10:34:55;7.40;99.90
30572;DHT22;17348;50.948;10.696;2024-01-06T10:37:59;7.50;99.90
30572;DHT22;17348;50.948;10.696;2024-01-06T10:41:03;7.70;99.90
30572;DHT22;17348;50.948;10.696;2024-01-06T10:44:08;7.80;99.90
30572;DHT22;17348;50.948;10.696;2024-01-06T10:47:13;7.80;99.90
30572;DHT22;17348;50.948;10.696;2024-01-06T10:50:17;7.90;99.90
30572;DHT22;17348;50.948;10.696;2024-01-06T10:53:21;8.00;99.90
30572;DHT22;17348;50.948;10.696;2024-01-06T10:56:25;8.00;99.90
30572;DHT22;17348;50.948;10.696;2024-01-06T10:59:28;8.10;99.90
30572;DHT22;17348;50.948;10.696;2024-01-06T11:02:34;8.10;99.90
30572;DHT22;17348;50.948;10.696;2024-01-06T11:05:37;8.30;99.90
30572;DHT22;17348;50.948;10.696;2024-01-06T11:08:46;8.40;99.90
30572;DHT22;17348;50.948;10.696;2024-01-06T11:11:51;8.60;99.90
30572;DHT22;17348;50.948;10.696;2024-01-06T11:14:54;8.50;99.90
30572;DHT22;17348;50.948;10.696;2024-01-06T11:17:57;8.60;99.90
30572;DHT22;17348;50.948;10.696;2024-01-06T11:21:18;8.70;99.90
30572;DHT22;17348;50.948;10.696;2024-01-06T11:24:24;8.70;99.90
30572;DHT22;17348;50.948;10.696;2024-01-06T11:27:28;8.70;99.90
30572;DHT22;17348;50.948;10.696;2024-01-06T11:30:30;8.80;99.90
30572;DHT22;17348;50.948;10.696;2024-01-06T11:33:41;8.80;99.90
30572;DHT22;17348;50.948;10.696;2024-01-06T11:36:44;8.80;99.90
30572;DHT22;17348;50.948;10.696;2024-01-06T11:39:47;8.70;99.90
30572;DHT22;17348;50.948;10.696;2024-01-06T11:42:57;8.70;99.90
30572;DHT22;17348;50.948;10.696;2024-01-06T11:46:00;8.70;99.90
30572;DHT22;17348;50.948;10.696;2024-01-06T11:49:05;8.70;99.90
30572;DHT22;17348;50.948;10.696;2024-01-06T11:52:10;8.60;99.90
30572;DHT22;17348;50.948;10.696;2024-01-06T11:55:12;8.70;99.90
30572;DHT22;17348;50.948;10.696;2024-01-06T11:58:16;8.70;99.90
30572;DHT22;17348;50.948;10.696;2024-01-06T12:01:19;8.60;99.90
30572;DHT22;17348;50.948;10.696;2024-01-06T12:04:22;8.70;99.90
30572;DHT22;17348;50.948;10.696;2024-01-06T12:07:26;8.60;99.90
30572;DHT22;17348;50.948;10.696;2024-01-06T12:10:29;8.60;99.90
30572;DHT22;17348;50.948;10.696;2024-01-06T12:13:33;8.60;99.90
30572;DHT22;17348;50.948;10.696;2024-01-06T12:16:36;8.40;99.90
30572;DHT22;17348;50.948;10.696;2024-01-06T12:19:40;8.20;99.90
30572;DHT22;17348;50.948;10.696;2024-01-06T12:22:44;8.00;99.90
30572;DHT22;17348;50.948;10.696;2024-01-06T12:25:47;8.00;99.90
30572;DHT22;17348;50.948;10.696;2024-01-06T12:28:50;8.00;99.90
30572;DHT22;17348;50.948;10.696;2024-01-06T12:31:53;8.00;99.90
30572;DHT22;17348;50.948;10.696;2024-01-06T12:34:57;7.90;99.90
30572;DHT22;17348;50.948;10.696;2024-01-06T12:38:02;7.90;99.90
30572;DHT22;17348;50.948;10.696;2024-01-06T12:41:06;7.80;99.90
30572;DHT22;17348;50.948;10.696;2024-01-06T12:44:09;7.90;99.90
30572;DHT22;17348;50.948;10.696;2024-01-06T12:47:11;7.90;99.90
30572;DHT22;17348;50.948;10.696;2024-01-06T12:50:16;7.90;99.90
30572;DHT22;17348;50.948;10.696;2024-01-06T12:53:19;7.80;99.90
30572;DHT22;17348;50.948;10.696;2024-01-06T12:56:24;7.80;99.90
30572;DHT22;17348;50.948;10.696;2024-01-06T12:59:27;7.70;99.90
30572;DHT22;17348;50.948;10.696;2024-01-06T13:02:31;7.70;99.90
30572;DHT22;17348;50.948;10.696;2024-01-06T13:05:35;7.60;99.90
30572;DHT22;17348;50.948;10.696;2024-01-06T13:08:38;7.50;99.90
30572;DHT22;17348;50.948;10.696;2024-01-06T13:11:40;7.50;99.90
30572;DHT22;17348;50.948;10.696;2024-01-06T13:14:44;7.40;99.90
30572;DHT22;17348;50.948;10.696;2024-01-06T13:17:48;7.30;99.90
30572;DHT22;17348;50.948;10.696;2024-01-06T13:20:54;7.30;99.90
30572;DHT22;17348;50.948;10.696;2024-01-06T13:23:56;7.30;99.90
30572;DHT22;17348;50.948;10.696;2024-01-06T13:27:02;7.30;99.90
30572;DHT22;17348;50.948;10.696;2024-01-06T13:30:07;7.30;99.90
30572;DHT22;17348;50.948;10.696;2024-01-06T13:33:10;7.30;99.90
30572;DHT22;17348;50.948;10.696;2024-01-06T13:36:13;7.30;99.90
30572;DHT22;17348;50.948;10.696;2024-01-06T13:39:18;7.20;99.90
30572;DHT22;17348;50.948;10.696;2024-01-06T13:42:22;7.20;99.90
30572;DHT22;17348;50.948;10.696;2024-01-06T13:45:24;7.10;99.90
30572;DHT22;17348;50.948;10.696;2024-01-06T13:48:27;7.10;99.90
30572;DHT22;17348;50.948;10.696;2024-01-06T13:51:31;7.00;99.90
30572;DHT22;17348;50.948;10.696;2024-01-06T13:54:34;6.90;99.90
30572;DHT22;17348;50.948;10.696;2024-01-06T13:57:37;6.90;99.90
30572;DHT22;17348;50.948;10.696;2024-01-06T14:00:42;6.90;99.90
30572;DHT22;17348;50.948;10.696;2024-01-06T14:03:45;6.90;99.90
30572;DHT22;17348;50.948;10.696;2024-01-06T14:06:48;7.00;99.90
30572;DHT22;17348;50.948;10.696;2024-01-06T14:09:56;7.00;99.90
30572;DHT22;17348;50.948;10.696;2024-01-06T14:12:59;7.00;99.90
30572;DHT22;17348;50.948;10.696;2024-01-06T14:16:01;7.00;99.90
30572;DHT22;17348;50.948;10.696;2024-01-06T14:19:04;7.00;99.90
30572;DHT22;17348;50.948;10.696;2024-01-06T14:22:07;7.00;99.90
30572;DHT22;17348;50.948;10.696;2024-01-06T14:25:10;6.90;99.90
30572;DHT22;17348;50.948;10.696;2024-01-06T14:28:12;6.90;99.90
30572;DHT22;17348;50.948;10.696;2024-01-06T14:31:15;6.80;99.90
30572;DHT22;17348;50.948;10.696;2024-01-06T14:34:17;6.80;99.90
30572;DHT22;17348;50.948;10.696;2024-01-06T14:37:21;6.80;99.90
30572;DHT22;17348;50.948;10.696;2024-01-06T14:40:23;6.80;99.90
30572;DHT22;17348;50.948;10.696;2024-01-06T14:43:25;6.80;99.90
30572;DHT22;17348;50.948;10.696;2024-01-06T14:46:28;6.80;99.90
30572;DHT22;17348;50.948;10.696;2024-01-06T14:49:32;6.80;99.90
30572;DHT22;17348;50.948;10.696;2024-01-06T14:52:36;6.70;99.90
30572;DHT22;17348;50.948;10.696;2024-01-06T14:55:40;6.70;99.90
30572;DHT22;17348;50.948;10.696;2024-01-06T14:58:43;6.70;99.90
30572;DHT22;17348;50.948;10.696;2024-01-06T15:01:45;6.70;99.90
30572;DHT22;17348;50.948;10.696;2024-01-06T15:04:48;6.70;99.90
30572;DHT22;17348;50.948;10.696;2024-01-06T15:07:52;6.70;99.90
30572;DHT22;17348;50.948;10.696;2024-01-06T15:10:54;6.70;99.90
30572;DHT22;17348;50.948;10.696;2024-01-06T15:13:57;6.70;99.90
30572;DHT22;17348;50.948;10.696;2024-01-06T15:16:59;6.70;99.90
30572;DHT22;17348;50.948;10.696;2024-01-06T15:20:05;6.70;99.90
30572;DHT22;17348;50.948;10.696;2024-01-06T15:23:09;6.60;99.90
30572;DHT22;17348;50.948;10.696;2024-01-06T15:26:11;6.70;99.90
30572;DHT22;17348;50.948;10.696;2024-01-06T15:29:22;6.70;99.90
30572;DHT22;17348;50.948;10.696;2024-01-06T15:32:25;6.60;99.90
30572;DHT22;17348;50.948;10.696;2024-01-06T15:35:27;6.60;99.90
30572;DHT22;17348;50.948;10.696;2024-01-06T15:38:31;6.60;99.90
30572;DHT22;17348;50.948;10.696;2024-01-06T15:41:33;6.60;99.90
30572;DHT22;17348;50.948;10.696;2024-01-06T15:44:35;6.60;99.90
30572;DHT22;17348;50.948;10.696;2024-01-06T15:47:38;6.60;99.90
30572;DHT22;17348;50.948;10.696;2024-01-06T15:50:41;6.60;99.90
30572;DHT22;17348;50.948;10.696;2024-01-06T15:53:45;6.50;99.90
30572;DHT22;17348;50.948;10.696;2024-01-06T15:56:47;6.50;99.90
30572;DHT22;17348;50.948;10.696;2024-01-06T15:59:55;6.50;99.90
30572;DHT22;17348;50.948;10.696;2024-01-06T16:06:04;6.50;99.90
30572;DHT22;17348;50.948;10.696;2024-01-06T16:09:07;6.50;99.90
30572;DHT22;17348;50.948;10.696;2024-01-06T16:12:11;6.50;99.90
30572;DHT22;17348;50.948;10.696;2024-01-06T16:15:14;6.50;99.90
30572;DHT22;17348;50.948;10.696;2024-01-06T16:18:16;6.50;99.90
30572;DHT22;17348;50.948;10.696;2024-01-06T16:21:24;6.50;99.90
30572;DHT22;17348;50.948;10.696;2024-01-06T16:24:27;6.50;99.90
30572;DHT22;17348;50.948;10.696;2024-01-06T16:27:31;6.50;99.90
30572;DHT22;17348;50.948;10.696;2024-01-06T16:30:33;6.50;99.90
30572;DHT22;17348;50.948;10.696;2024-01-06T16:33:35;6.50;99.90
30572;DHT22;17348;50.948;10.696;2024-01-06T16:36:38;6.50;99.90
30572;DHT22;17348;50.948;10.696;2024-01-06T16:39:42;6.50;99.90
30572;DHT22;17348;50.948;10.696;2024-01-06T16:42:44;6.50;99.90
30572;DHT22;17348;50.948;10.696;2024-01-06T16:45:47;6.50;99.90
30572;DHT22;17348;50.948;10.696;2024-01-06T16:48:50;6.40;99.90
30572;DHT22;17348;50.948;10.696;2024-01-06T16:51:52;6.50;99.90
30572;DHT22;17348;50.948;10.696;2024-01-06T16:54:56;6.50;99.90
30572;DHT22;17348;50.948;10.696;2024-01-06T16:57:58;6.50;99.90
30572;DHT22;17348;50.948;10.696;2024-01-06T17:01:01;6.40;99.90
30572;DHT22;17348;50.948;10.696;2024-01-06T17:04:04;6.50;99.90
30572;DHT22;17348;50.948;10.696;2024-01-06T17:07:07;6.40;99.90
30572;DHT22;17348;50.948;10.696;2024-01-06T17:10:11;6.40;99.90
30572;DHT22;17348;50.948;10.696;2024-01-06T17:13:16;6.30;99.90
30572;DHT22;17348;50.948;10.696;2024-01-06T17:16:20;6.30;99.90
30572;DHT22;17348;50.948;10.696;2024-01-06T17:19:22;6.20;99.90
30572;DHT22;17348;50.948;10.696;2024-01-06T17:22:25;6.30;99.90
30572;DHT22;17348;50.948;10.696;2024-01-06T17:25:29;6.20;99.90
30572;DHT22;17348;50.948;10.696;2024-01-06T17:28:33;6.10;99.90
30572;DHT22;17348;50.948;10.696;2024-01-06T17:31:35;6.10;99.90
30572;DHT22;17348;50.948;10.696;2024-01-06T17:34:38;6.00;99.90
30572;DHT22;17348;50.948;10.696;2024-01-06T17:37:42;5.90;99.90
30572;DHT22;17348;50.948;10.696;2024-01-06T17:40:47;5.80;99.90
30572;DHT22;17348;50.948;10.696;2024-01-06T17:43:49;5.70;99.90
30572;DHT22;17348;50.948;10.696;2024-01-06T17:46:56;5.50;99.90
30572;DHT22;17348;50.948;10.696;2024-01-06T17:49:58;5.50;99.90
30572;DHT22;17348;50.948;10.696;2024-01-06T17:53:01;5.40;99.90
30572;DHT22;17348;50.948;10.696;2024-01-06T17:56:05;5.30;99.90
30572;DHT22;17348;50.948;10.696;2024-01-06T17:59:08;5.20;99.90
30572;DHT22;17348;50.948;10.696;2024-01-06T18:02:13;5.20;99.90
30572;DHT22;17348;50.948;10.696;2024-01-06T18:05:16;5.10;99.90
30572;DHT22;17348;50.948;10.696;2024-01-06T18:08:18;5.00;99.90
30572;DHT22;17348;50.948;10.696;2024-01-06T18:11:22;4.90;99.90
30572;DHT22;17348;50.948;10.696;2024-01-06T18:14:25;4.80;99.90
30572;DHT22;17348;50.948;10.696;2024-01-06T18:17:33;4.80;99.90
30572;DHT22;17348;50.948;10.696;2024-01-06T18:20:39;4.70;99.90
30572;DHT22;17348;50.948;10.696;2024-01-06T18:23:44;4.80;99.90
30572;DHT22;17348;50.948;10.696;2024-01-06T18:26:49;4.70;99.90
30572;DHT22;17348;50.948;10.696;2024-01-06T18:29:52;4.70;99.90
30572;DHT22;17348;50.948;10.696;2024-01-06T18:32:55;4.70;99.90
30572;DHT22;17348;50.948;10.696;2024-01-06T18:35:58;4.80;99.90
30572;DHT22;17348;50.948;10.696;2024-01-06T18:39:00;4.80;99.90
30572;DHT22;17348;50.948;10.696;2024-01-06T18:42:05;4.80;99.90
30572;DHT22;17348;50.948;10.696;2024-01-06T18:45:10;4.70;99.90
30572;DHT22;17348;50.948;10.696;2024-01-06T18:48:12;4.60;99.90
30572;DHT22;17348;50.948;10.696;2024-01-06T18:51:14;4.60;99.90
30572;DHT22;17348;50.948;10.696;2024-01-06T18:54:17;4.60;99.90
30572;DHT22;17348;50.948;10.696;2024-01-06T18:57:20;4.60;99.90
30572;DHT22;17348;50.948;10.696;2024-01-06T19:00:23;4.50;99.90
30572;DHT22;17348;50.948;10.696;2024-01-06T19:03:26;4.50;99.90
30572;DHT22;17348;50.948;10.696;2024-01-06T19:06:34;4.50;99.90
30572;DHT22;17348;50.948;10.696;2024-01-06T19:09:36;4.40;99.90
30572;DHT22;17348;50.948;10.696;2024-01-06T19:12:40;4.40;99.90
30572;DHT22;17348;50.948;10.696;2024-01-06T19:15:43;4.30;99.90
30572;DHT22;17348;50.948;10.696;2024-01-06T19:18:45;4.30;99.90